Time;durP1;ratioP1;P1;durP2;ratioP2;P2;SDS_P1;SDS_P2;PMS_P1;PMS_P2;Temp;Humidity;BMP_temperature;BMP_pressure;BME280_temperature;BME280_humidity;BME280_pressure;Samples;Min_cycle;Max_cycle;Signal;HPM_P1;HPM_P2
2021/09/21 00:01:39;;;;;;;4.47;3.25;;;;;;;;;;5067540;28;20474;-71
2021/09/21 00:04:05;;;;;;;5.20;3.25;;;;;;;;;;5067351;28;20037;-74
2021/09/21 00:06:31;;;;;;;7.68;3.30;;;;;;;;;;5067250;28;20489;-72
2021/09/21 00:08:57;;;;;;;5.50;3.05;;;;;;;;;;5066470;28;20103;-72
2021/09/21 00:11:23;;;;;;;4.10;2.63;;;;;;;;;;5063450;28;20488;-73
2021/09/21 00:13:49;;;;;;;4.45;2.80;;;;;;;;;;5062136;28;20487;-72
2021/09/21 00:16:15;;;;;;;4.88;3.17;;;;;;;;;;5063383;28;20108;-72
2021/09/21 00:18:41;;;;;;;6.72;3.20;;;;;;;;;;5070800;28;20032;-73
2021/09/21 00:21:07;;;;;;;5.55;2.97;;;;;;;;;;5070589;28;20623;-72
2021/09/21 00:23:33;;;;;;;5.45;3.15;;;;;;;;;;5068365;28;20037;-73
2021/09/21 00:25:59;;;;;;;6.90;3.13;;;;;;;;;;5069842;28;20036;-73
2021/09/21 00:28:25;;;;;;;3.78;2.85;;;;;;;;;;5060911;28;20391;-72
2021/09/21 00:30:52;;;;;;;6.75;3.13;;;;;;;;;;5070549;28;20186;-73
2021/09/21 00:33:21;;;;;;;4.68;3.00;;;;;;;;;;5069146;28;20111;-74
2021/09/21 00:35:47;;;;;;;5.30;3.03;;;;;;;;;;5069744;28;20036;-73
2021/09/21 00:38:15;;;;;;;8.05;3.42;;;;;;;;;;5064950;28;20008;-73
2021/09/21 00:40:41;;;;;;;4.80;2.70;;;;;;;;;;5065107;28;20029;-73
2021/09/21 00:43:08;;;;;;;3.75;2.75;;;;;;;;;;5068336;28;20035;-73
2021/09/21 00:45:34;;;;;;;7.55;3.08;;;;;;;;;;5068856;28;20492;-73
2021/09/21 00:48:00;;;;;;;3.53;2.70;;;;;;;;;;5068451;28;20028;-73
2021/09/21 00:50:27;;;;;;;4.03;2.72;;;;;;;;;;5065390;28;20043;-73
2021/09/21 00:52:54;;;;;;;7.00;3.13;;;;;;;;;;5070840;28;20032;-72
2021/09/21 00:55:20;;;;;;;5.13;3.00;;;;;;;;;;5068646;28;20029;-72
2021/09/21 00:57:47;;;;;;;7.45;2.90;;;;;;;;;;5069233;28;20052;-73
2021/09/21 01:00:14;;;;;;;5.38;2.88;;;;;;;;;;5064836;28;20025;-73
2021/09/21 01:02:41;;;;;;;5.05;3.15;;;;;;;;;;5056002;28;20444;-73
2021/09/21 01:05:07;;;;;;;5.45;3.25;;;;;;;;;;5067810;28;20155;-72
2021/09/21 01:07:36;;;;;;;5.53;2.75;;;;;;;;;;5068859;28;20433;-73
2021/09/21 01:10:03;;;;;;;5.05;2.97;;;;;;;;;;5064175;28;20049;-72
2021/09/21 01:12:29;;;;;;;5.88;3.03;;;;;;;;;;5064437;28;20077;-72
2021/09/21 01:14:55;;;;;;;5.15;3.35;;;;;;;;;;5053158;28;20025;-72
2021/09/21 01:17:21;;;;;;;3.45;2.42;;;;;;;;;;5066311;28;20023;-73
2021/09/21 01:19:47;;;;;;;4.97;3.03;;;;;;;;;;5062719;28;20396;-72
2021/09/21 01:22:13;;;;;;;3.88;2.60;;;;;;;;;;5063198;28;20070;-72
2021/09/21 01:24:39;;;;;;;5.97;2.78;;;;;;;;;;5068228;28;20398;-73
2021/09/21 01:27:05;;;;;;;4.68;2.80;;;;;;;;;;5067378;28;20873;-73
2021/09/21 01:29:31;;;;;;;4.38;3.00;;;;;;;;;;5069603;28;20487;-73
2021/09/21 01:31:57;;;;;;;5.38;2.85;;;;;;;;;;5065713;28;20056;-73
2021/09/21 01:34:25;;;;;;;6.15;3.08;;;;;;;;;;5069395;28;20044;-73
2021/09/21 01:36:51;;;;;;;3.28;2.55;;;;;;;;;;5072198;28;20025;-73
2021/09/21 01:39:17;;;;;;;5.57;2.67;;;;;;;;;;5059975;28;20020;-73
2021/09/21 01:41:43;;;;;;;3.78;2.67;;;;;;;;;;5067228;28;20021;-72
2021/09/21 01:44:09;;;;;;;3.95;2.80;;;;;;;;;;5066744;28;20101;-72
2021/09/21 01:46:36;;;;;;;10.85;3.20;;;;;;;;;;5067933;28;20091;-72
2021/09/21 01:49:02;;;;;;;5.28;2.85;;;;;;;;;;5059057;28;20035;-73
2021/09/21 01:51:31;;;;;;;5.68;2.95;;;;;;;;;;5067436;28;20258;-72
2021/09/21 01:54:11;;;;;;;5.03;2.78;;;;;;;;;;5063294;28;20028;-73
2021/09/21 01:59:22;;;;;;;6.38;2.88;;;;;;;;;;5058863;28;20083;-73
2021/09/21 02:01:48;;;;;;;5.55;2.83;;;;;;;;;;5068631;28;20040;-73
2021/09/21 02:04:14;;;;;;;5.88;2.35;;;;;;;;;;5067903;28;20038;-72
2021/09/21 02:06:41;;;;;;;4.00;2.63;;;;;;;;;;5068304;28;20028;-72
2021/09/21 02:09:09;;;;;;;4.63;3.20;;;;;;;;;;5068356;28;20024;-72
2021/09/21 02:11:36;;;;;;;3.47;2.58;;;;;;;;;;5062348;28;20033;-74
2021/09/21 02:14:02;;;;;;;7.78;3.40;;;;;;;;;;5063343;28;20066;-73
2021/09/21 02:16:30;;;;;;;5.53;3.20;;;;;;;;;;5061851;28;20033;-73
2021/09/21 02:18:56;;;;;;;4.35;2.65;;;;;;;;;;5064904;28;20048;-73
2021/09/21 02:21:22;;;;;;;4.82;3.03;;;;;;;;;;5063790;28;20037;-72
2021/09/21 02:23:48;;;;;;;5.75;3.17;;;;;;;;;;5066801;28;20104;-72
2021/09/21 02:26:14;;;;;;;6.38;3.30;;;;;;;;;;5061892;28;20379;-73
2021/09/21 02:28:40;;;;;;;6.90;3.53;;;;;;;;;;5063311;28;20077;-73
2021/09/21 02:31:06;;;;;;;6.38;3.00;;;;;;;;;;5067018;28;20028;-73
2021/09/21 02:33:32;;;;;;;4.90;2.90;;;;;;;;;;5068366;28;20421;-73
2021/09/21 02:35:58;;;;;;;7.10;3.00;;;;;;;;;;5066113;28;20071;-73
2021/09/21 02:38:24;;;;;;;5.82;3.17;;;;;;;;;;5065710;28;20044;-73
2021/09/21 02:40:50;;;;;;;4.03;3.00;;;;;;;;;;5068481;28;20039;-73
2021/09/21 02:43:16;;;;;;;4.70;3.35;;;;;;;;;;5063827;28;20028;-72
2021/09/21 02:45:42;;;;;;;9.65;2.95;;;;;;;;;;5056778;28;20056;-72
2021/09/21 02:48:08;;;;;;;4.72;3.20;;;;;;;;;;5064220;28;20112;-72
2021/09/21 02:50:34;;;;;;;6.95;3.17;;;;;;;;;;5062588;28;20025;-72
2021/09/21 02:53:00;;;;;;;4.35;2.85;;;;;;;;;;5062184;28;20487;-72
2021/09/21 02:55:26;;;;;;;6.20;2.92;;;;;;;;;;5065512;28;20025;-71
2021/09/21 02:57:52;;;;;;;5.43;3.00;;;;;;;;;;5061755;28;20047;-72
2021/09/21 03:00:25;;;;;;;4.93;3.10;;;;;;;;;;5058886;28;20032;-72
2021/09/21 03:02:51;;;;;;;4.57;2.97;;;;;;;;;;5065762;28;20115;-72
2021/09/21 03:05:23;;;;;;;5.00;3.17;;;;;;;;;;5062956;28;20056;-72
2021/09/21 03:10:31;;;;;;;6.70;3.22;;;;;;;;;;5064686;28;20479;-72
2021/09/21 03:13:17;;;;;;;5.75;2.95;;;;;;;;;;5064082;28;20024;-72
2021/09/21 03:18:28;;;;;;;10.00;4.03;;;;;;;;;;5058273;28;20090;-72
2021/09/21 03:20:54;;;;;;;7.50;3.60;;;;;;;;;;5051390;28;20022;-72
2021/09/21 03:23:20;;;;;;;5.22;2.67;;;;;;;;;;5057492;28;20016;-72
2021/09/21 03:25:46;;;;;;;4.10;2.95;;;;;;;;;;5066936;28;20126;-72
2021/09/21 03:28:12;;;;;;;7.75;2.85;;;;;;;;;;5065955;28;20112;-72
2021/09/21 03:30:38;;;;;;;4.55;2.95;;;;;;;;;;5057509;28;20391;-72
2021/09/21 03:33:04;;;;;;;4.57;3.10;;;;;;;;;;5067367;28;20104;-72
2021/09/21 03:35:30;;;;;;;4.90;2.92;;;;;;;;;;5063454;28;20696;-71
2021/09/21 03:37:56;;;;;;;3.65;2.72;;;;;;;;;;5064327;28;20024;-72
2021/09/21 03:40:22;;;;;;;4.72;3.03;;;;;;;;;;5063480;28;20025;-72
2021/09/21 03:42:51;;;;;;;4.13;2.75;;;;;;;;;;5067793;28;20544;-71
2021/09/21 03:45:17;;;;;;;6.43;3.13;;;;;;;;;;5065797;28;20048;-72
2021/09/21 03:47:43;;;;;;;8.18;3.50;;;;;;;;;;5063193;28;20035;-72
2021/09/21 03:50:12;;;;;;;7.22;2.63;;;;;;;;;;5054423;28;20399;-72
2021/09/21 03:52:38;;;;;;;8.65;2.90;;;;;;;;;;5060970;28;20384;-72
2021/09/21 03:55:04;;;;;;;4.45;3.05;;;;;;;;;;5067402;28;20032;-71
2021/09/21 03:57:31;;;;;;;4.78;3.00;;;;;;;;;;5064099;28;20143;-72
2021/09/21 03:59:57;;;;;;;5.35;3.03;;;;;;;;;;5056242;28;20511;-72
2021/09/21 04:02:23;;;;;;;8.10;3.53;;;;;;;;;;5067888;28;20028;-72
2021/09/21 04:04:49;;;;;;;6.15;2.95;;;;;;;;;;5066790;28;20032;-72
2021/09/21 04:07:15;;;;;;;5.07;2.60;;;;;;;;;;5068264;28;20068;-73
2021/09/21 04:09:41;;;;;;;4.63;2.92;;;;;;;;;;5063840;28;20079;-72
2021/09/21 04:12:07;;;;;;;6.10;3.25;;;;;;;;;;5059889;28;20032;-73
2021/09/21 04:14:34;;;;;;;5.20;3.38;;;;;;;;;;5067097;28;20021;-73
2021/09/21 04:16:59;;;;;;;5.15;3.22;;;;;;;;;;5066920;28;20035;-73
2021/09/21 04:19:25;;;;;;;7.20;3.20;;;;;;;;;;5070008;28;20021;-72
2021/09/21 04:21:52;;;;;;;5.03;2.90;;;;;;;;;;5069674;28;20119;-73
2021/09/21 04:24:18;;;;;;;5.40;3.22;;;;;;;;;;5066737;28;20068;-73
2021/09/21 04:26:43;;;;;;;5.80;2.90;;;;;;;;;;5069849;28;20028;-73
2021/09/21 04:29:10;;;;;;;8.07;3.53;;;;;;;;;;5070855;28;20020;-72
2021/09/21 04:31:38;;;;;;;5.28;3.00;;;;;;;;;;5064262;28;20120;-73
2021/09/21 04:34:04;;;;;;;5.35;2.75;;;;;;;;;;5069559;28;20032;-72
2021/09/21 04:36:30;;;;;;;4.82;3.13;;;;;;;;;;5067717;28;20047;-73
2021/09/21 04:38:56;;;;;;;6.88;3.17;;;;;;;;;;5059499;28;20651;-72
2021/09/21 04:41:23;;;;;;;4.55;3.17;;;;;;;;;;5069143;28;20476;-73
2021/09/21 04:43:49;;;;;;;5.20;2.83;;;;;;;;;;5065681;28;20493;-72
2021/09/21 04:46:15;;;;;;;6.32;3.42;;;;;;;;;;5067078;28;20059;-73
2021/09/21 04:48:41;;;;;;;5.93;3.13;;;;;;;;;;5057083;28;20029;-71
2021/09/21 04:51:07;;;;;;;4.07;2.90;;;;;;;;;;5057396;28;20036;-70
2021/09/21 04:53:33;;;;;;;4.35;2.90;;;;;;;;;;5058833;28;20029;-70
2021/09/21 04:55:59;;;;;;;7.55;2.88;;;;;;;;;;5059952;28;20407;-71
2021/09/21 04:58:25;;;;;;;3.92;2.95;;;;;;;;;;5062088;28;20040;-70
2021/09/21 05:00:51;;;;;;;4.40;2.85;;;;;;;;;;5063949;28;20039;-71
2021/09/21 05:03:17;;;;;;;6.32;3.10;;;;;;;;;;5066755;28;20027;-73
2021/09/21 05:05:43;;;;;;;5.85;3.00;;;;;;;;;;5058736;28;20387;-73
2021/09/21 05:08:09;;;;;;;3.97;2.78;;;;;;;;;;5069442;28;20020;-74
2021/09/21 05:10:35;;;;;;;6.05;3.47;;;;;;;;;;5041931;28;20033;-73
2021/09/21 05:13:01;;;;;;;6.53;2.90;;;;;;;;;;5056799;28;20020;-73
2021/09/21 05:15:27;;;;;;;4.43;2.88;;;;;;;;;;5067121;28;20059;-74
2021/09/21 05:17:53;;;;;;;3.78;2.80;;;;;;;;;;5064919;28;20025;-73
2021/09/21 05:20:19;;;;;;;4.90;2.92;;;;;;;;;;5062868;28;20029;-72
2021/09/21 05:22:52;;;;;;;5.03;2.97;;;;;;;;;;5067246;28;20025;-72
2021/09/21 05:25:18;;;;;;;4.63;2.90;;;;;;;;;;5064271;28;20033;-72
2021/09/21 05:27:44;;;;;;;5.47;3.10;;;;;;;;;;5068696;28;20854;-72
2021/09/21 05:30:10;;;;;;;4.97;3.22;;;;;;;;;;5062433;28;20094;-72
2021/09/21 05:32:36;;;;;;;7.03;3.30;;;;;;;;;;5068909;28;20032;-72
2021/09/21 05:35:02;;;;;;;5.95;2.92;;;;;;;;;;5063323;28;20054;-72
2021/09/21 05:37:30;;;;;;;6.93;3.55;;;;;;;;;;5064587;28;20048;-72
2021/09/21 05:39:56;;;;;;;7.32;3.42;;;;;;;;;;5066922;28;20496;-72
2021/09/21 05:42:26;;;;;;;5.25;3.28;;;;;;;;;;5045325;28;20033;-72
2021/09/21 05:44:52;;;;;;;4.88;3.38;;;;;;;;;;5061668;28;20043;-71
2021/09/21 05:47:18;;;;;;;9.90;2.88;;;;;;;;;;5061620;28;20769;-72
2021/09/21 05:49:44;;;;;;;5.45;3.58;;;;;;;;;;5056629;28;20051;-73
2021/09/21 05:52:10;;;;;;;5.68;3.50;;;;;;;;;;5071442;28;20771;-73
2021/09/21 05:54:36;;;;;;;5.55;3.15;;;;;;;;;;5069329;28;20036;-73
2021/09/21 05:57:03;;;;;;;10.75;3.33;;;;;;;;;;5063462;28;20036;-73
2021/09/21 05:59:28;;;;;;;5.82;3.08;;;;;;;;;;5062659;28;20028;-74
2021/09/21 06:01:54;;;;;;;5.63;3.42;;;;;;;;;;5066520;28;20471;-73
2021/09/21 06:04:20;;;;;;;9.35;3.33;;;;;;;;;;5062400;28;20051;-73
2021/09/21 06:06:46;;;;;;;5.35;3.35;;;;;;;;;;5068428;28;20038;-73
2021/09/21 06:09:12;;;;;;;7.25;3.80;;;;;;;;;;5065245;28;20214;-74
2021/09/21 06:11:38;;;;;;;8.82;4.13;;;;;;;;;;5058225;28;20036;-73
2021/09/21 06:14:05;;;;;;;6.88;3.65;;;;;;;;;;5063805;28;20394;-73
2021/09/21 06:16:31;;;;;;;6.15;3.72;;;;;;;;;;5058612;28;20487;-71
2021/09/21 06:18:57;;;;;;;5.55;3.65;;;;;;;;;;5065032;28;20103;-71
2021/09/21 06:21:24;;;;;;;6.30;4.25;;;;;;;;;;5061030;28;20108;-70
2021/09/21 06:23:49;;;;;;;5.60;3.72;;;;;;;;;;5067894;28;20035;-72
2021/09/21 06:26:15;;;;;;;10.70;3.65;;;;;;;;;;5064584;28;20391;-70
2021/09/21 06:28:41;;;;;;;6.85;3.50;;;;;;;;;;5064907;28;20029;-72
2021/09/21 06:31:07;;;;;;;6.45;3.40;;;;;;;;;;5056857;28;20029;-72
2021/09/21 06:33:33;;;;;;;4.93;3.20;;;;;;;;;;5064030;28;20056;-71
2021/09/21 06:35:59;;;;;;;8.93;3.75;;;;;;;;;;5064551;28;20020;-72
2021/09/21 06:38:26;;;;;;;6.47;3.92;;;;;;;;;;5066120;28;20028;-71
2021/09/21 06:40:51;;;;;;;5.38;3.30;;;;;;;;;;5067717;28;20088;-73
2021/09/21 06:43:17;;;;;;;9.23;3.95;;;;;;;;;;5065994;28;20139;-71
2021/09/21 06:45:43;;;;;;;6.25;3.80;;;;;;;;;;5068200;28;20724;-72
2021/09/21 06:48:11;;;;;;;4.90;3.42;;;;;;;;;;5054936;28;20028;-71
2021/09/21 06:50:37;;;;;;;6.88;3.33;;;;;;;;;;5063551;28;20044;-71
2021/09/21 06:53:03;;;;;;;7.72;3.60;;;;;;;;;;5064126;28;20028;-71
2021/09/21 06:55:28;;;;;;;6.30;3.97;;;;;;;;;;5059946;28;20032;-71
2021/09/21 06:57:56;;;;;;;6.93;3.67;;;;;;;;;;5053964;28;20091;-69
2021/09/21 07:00:22;;;;;;;10.63;3.97;;;;;;;;;;5043666;28;20029;-77
2021/09/21 07:02:52;;;;;;;9.60;3.75;;;;;;;;;;5067888;28;20028;-72
2021/09/21 07:05:18;;;;;;;9.07;3.83;;;;;;;;;;5061365;28;20056;-70
2021/09/21 07:07:45;;;;;;;6.10;3.80;;;;;;;;;;5063616;28;20159;-70
2021/09/21 07:10:11;;;;;;;6.45;3.60;;;;;;;;;;5064036;28;20043;-70
2021/09/21 07:12:37;;;;;;;6.45;2.95;;;;;;;;;;5064127;28;20024;-70
2021/09/21 07:15:03;;;;;;;6.32;3.67;;;;;;;;;;5062239;28;20082;-71
2021/09/21 07:17:28;;;;;;;9.38;3.35;;;;;;;;;;5062855;28;20112;-71
2021/09/21 07:19:54;;;;;;;4.93;3.22;;;;;;;;;;5060592;28;20029;-70
2021/09/21 07:22:20;;;;;;;5.68;2.88;;;;;;;;;;5062274;28;20036;-70
2021/09/21 07:24:46;;;;;;;5.28;2.95;;;;;;;;;;5063499;28;20036;-71
2021/09/21 07:27:12;;;;;;;17.83;3.25;;;;;;;;;;5059316;28;20099;-71
2021/09/21 07:29:38;;;;;;;4.07;2.88;;;;;;;;;;5060480;28;20039;-71
2021/09/21 07:32:04;;;;;;;4.50;3.35;;;;;;;;;;5049317;28;20480;-71
2021/09/21 07:34:30;;;;;;;9.98;3.33;;;;;;;;;;5057890;28;20030;-71
2021/09/21 07:36:56;;;;;;;7.15;3.33;;;;;;;;;;5065453;28;20021;-71
2021/09/21 07:39:22;;;;;;;6.32;3.53;;;;;;;;;;5059591;28;20119;-71
2021/09/21 07:41:48;;;;;;;6.30;3.35;;;;;;;;;;5068682;28;20036;-71
2021/09/21 07:44:14;;;;;;;5.70;3.25;;;;;;;;;;5066129;28;20033;-71
2021/09/21 07:46:40;;;;;;;6.72;3.58;;;;;;;;;;5062830;28;20016;-71
2021/09/21 07:49:06;;;;;;;8.30;3.05;;;;;;;;;;5067488;28;20483;-71
2021/09/21 07:51:31;;;;;;;11.25;3.10;;;;;;;;;;5061280;28;20538;-71
2021/09/21 07:53:57;;;;;;;12.90;3.30;;;;;;;;;;5065343;28;20029;-71
2021/09/21 07:56:23;;;;;;;10.38;3.80;;;;;;;;;;5070604;28;20034;-70
2021/09/21 07:58:50;;;;;;;11.50;3.60;;;;;;;;;;5066287;28;20076;-71
2021/09/21 08:01:16;;;;;;;5.50;2.85;;;;;;;;;;5068193;28;20047;-70
2021/09/21 08:03:42;;;;;;;5.57;3.22;;;;;;;;;;5062857;28;20030;-70
2021/09/21 08:06:09;;;;;;;5.93;2.60;;;;;;;;;;5064320;28;20098;-70
2021/09/21 08:08:38;;;;;;;4.70;2.97;;;;;;;;;;5061802;28;20102;-71
2021/09/21 08:11:05;;;;;;;5.47;2.60;;;;;;;;;;5064210;28;20085;-71
2021/09/21 08:13:31;;;;;;;5.60;2.67;;;;;;;;;;5065268;28;20036;-71
2021/09/21 08:15:57;;;;;;;4.90;2.65;;;;;;;;;;5064567;28;20020;-71
2021/09/21 08:18:23;;;;;;;8.45;2.47;;;;;;;;;;5063799;28;20360;-71
2021/09/21 08:20:49;;;;;;;4.05;2.63;;;;;;;;;;5065332;28;20017;-71
2021/09/21 08:23:15;;;;;;;6.63;2.67;;;;;;;;;;5064504;28;20013;-71
2021/09/21 08:25:41;;;;;;;4.07;2.53;;;;;;;;;;5060190;28;20576;-70
2021/09/21 08:28:07;;;;;;;4.82;2.60;;;;;;;;;;5069782;28;20078;-73
2021/09/21 08:30:33;;;;;;;4.97;2.33;;;;;;;;;;5067982;28;20032;-73
2021/09/21 08:33:00;;;;;;;3.58;2.38;;;;;;;;;;5070267;28;20115;-72
2021/09/21 08:35:26;;;;;;;5.05;2.28;;;;;;;;;;5067653;28;20063;-73
2021/09/21 08:37:52;;;;;;;5.05;2.40;;;;;;;;;;5068058;28;20024;-72
2021/09/21 08:40:18;;;;;;;4.32;2.17;;;;;;;;;;5057745;28;20910;-73
2021/09/21 08:42:44;;;;;;;4.75;2.10;;;;;;;;;;5069785;28;20025;-73
2021/09/21 08:45:10;;;;;;;3.95;2.20;;;;;;;;;;5069721;28;20032;-72
2021/09/21 08:47:37;;;;;;;4.63;2.42;;;;;;;;;;5069878;28;20379;-73
2021/09/21 08:50:04;;;;;;;4.45;2.40;;;;;;;;;;5068867;28;20024;-72
2021/09/21 08:52:30;;;;;;;5.93;2.30;;;;;;;;;;5066878;28;20695;-73
2021/09/21 08:54:56;;;;;;;4.95;2.65;;;;;;;;;;5069644;28;20033;-73
2021/09/21 08:57:22;;;;;;;5.28;2.38;;;;;;;;;;5069681;28;20132;-72
2021/09/21 08:59:52;;;;;;;4.00;2.10;;;;;;;;;;5069359;28;20537;-73
2021/09/21 09:02:19;;;;;;;3.17;2.35;;;;;;;;;;5065198;28;20469;-72
2021/09/21 09:04:55;;;;;;;3.70;2.70;;;;;;;;;;5070006;28;20521;-72
2021/09/21 09:07:21;;;;;;;6.93;2.35;;;;;;;;;;5070164;28;20059;-73
2021/09/21 09:09:47;;;;;;;4.78;2.58;;;;;;;;;;5065565;28;20029;-72
2021/09/21 09:12:13;;;;;;;4.10;2.28;;;;;;;;;;5067878;28;20039;-72
2021/09/21 09:14:40;;;;;;;7.22;2.60;;;;;;;;;;5069138;28;20031;-73
2021/09/21 09:17:07;;;;;;;7.07;2.90;;;;;;;;;;5069985;28;20029;-72
2021/09/21 09:19:38;;;;;;;4.20;2.63;;;;;;;;;;5070121;28;20021;-73
2021/09/21 09:22:08;;;;;;;5.55;2.35;;;;;;;;;;5069695;28;20036;-73
2021/09/21 09:24:45;;;;;;;4.68;2.30;;;;;;;;;;5070087;28;20030;-73
2021/09/21 09:27:11;;;;;;;4.70;2.70;;;;;;;;;;5059816;28;20025;-73
2021/09/21 09:29:51;;;;;;;5.95;2.70;;;;;;;;;;5064542;28;20082;-73
2021/09/21 09:32:16;;;;;;;5.43;2.45;;;;;;;;;;5057039;28;20040;-73
2021/09/21 09:34:42;;;;;;;5.95;2.38;;;;;;;;;;5065186;28;20117;-72
2021/09/21 09:37:08;;;;;;;3.28;2.20;;;;;;;;;;5068722;28;20550;-72
2021/09/21 09:39:34;;;;;;;3.65;2.40;;;;;;;;;;5069243;28;20047;-73
2021/09/21 09:42:01;;;;;;;4.38;2.50;;;;;;;;;;5068582;28;20053;-73
2021/09/21 09:44:28;;;;;;;4.28;2.53;;;;;;;;;;5056371;28;20036;-73
2021/09/21 09:47:00;;;;;;;6.18;2.70;;;;;;;;;;5068517;28;20391;-72
2021/09/21 09:49:26;;;;;;;;;;;;;;;;;;5068900;28;20281;-73
2021/09/21 09:51:52;;;;;;;4.78;2.42;;;;;;;;;;5068699;28;19908;-72
2021/09/21 09:54:18;;;;;;;3.30;2.30;;;;;;;;;;5064538;28;20025;-73
2021/09/21 09:56:45;;;;;;;3.65;2.28;;;;;;;;;;5067132;28;20356;-73
2021/09/21 09:59:12;;;;;;;5.10;2.50;;;;;;;;;;5067842;28;20538;-73
2021/09/21 10:01:38;;;;;;;4.40;2.65;;;;;;;;;;5060273;28;20750;-72
2021/09/21 10:04:05;;;;;;;3.80;2.80;;;;;;;;;;5068953;28;20160;-73
2021/09/21 10:06:34;;;;;;;5.03;2.47;;;;;;;;;;5067732;28;20029;-72
2021/09/21 10:09:02;;;;;;;4.57;2.53;;;;;;;;;;5068188;28;20024;-73
2021/09/21 10:11:29;;;;;;;5.00;2.90;;;;;;;;;;5063299;28;20445;-72
2021/09/21 10:13:55;;;;;;;4.82;2.45;;;;;;;;;;5068310;28;20032;-73
2021/09/21 10:16:21;;;;;;;2.45;1.92;;;;;;;;;;5068265;28;20029;-73
2021/09/21 10:18:53;;;;;;;3.17;2.20;;;;;;;;;;5064427;28;20177;-73
2021/09/21 10:21:29;;;;;;;4.55;2.30;;;;;;;;;;5057099;28;20044;-74
2021/09/21 10:23:55;;;;;;;4.05;2.30;;;;;;;;;;5067882;28;20034;-73
2021/09/21 10:26:23;;;;;;;3.03;2.15;;;;;;;;;;5068414;28;20044;-72
2021/09/21 10:28:50;;;;;;;7.53;2.50;;;;;;;;;;5068338;28;20028;-73
2021/09/21 10:31:18;;;;;;;6.80;2.30;;;;;;;;;;5062248;28;20024;-72
2021/09/21 10:33:45;;;;;;;3.63;2.20;;;;;;;;;;5067430;28;20044;-73
2021/09/21 10:36:21;;;;;;;8.45;2.47;;;;;;;;;;5063134;28;20031;-73
2021/09/21 10:38:54;;;;;;;3.85;2.13;;;;;;;;;;5067978;28;20370;-73
2021/09/21 10:41:20;;;;;;;5.97;2.28;;;;;;;;;;5066788;28;20111;-73
2021/09/21 10:43:57;;;;;;;3.40;1.90;;;;;;;;;;5067723;28;20095;-73
2021/09/21 10:46:23;;;;;;;3.47;2.58;;;;;;;;;;5067280;28;20097;-73
2021/09/21 10:48:49;;;;;;;2.70;2.22;;;;;;;;;;5068095;28;20052;-72
2021/09/21 10:51:15;;;;;;;4.95;2.30;;;;;;;;;;5061073;28;20020;-72
2021/09/21 10:53:41;;;;;;;4.15;2.33;;;;;;;;;;5066839;28;20028;-73
2021/09/21 10:56:12;;;;;;;4.18;2.10;;;;;;;;;;5067475;28;20048;-73
2021/09/21 10:58:38;;;;;;;3.03;2.05;;;;;;;;;;5067449;28;20048;-73
2021/09/21 11:01:05;;;;;;;4.55;2.30;;;;;;;;;;5066094;28;20120;-73
2021/09/21 11:03:31;;;;;;;5.30;2.80;;;;;;;;;;5054885;28;20036;-73
2021/09/21 11:05:58;;;;;;;4.93;2.65;;;;;;;;;;5067112;28;20046;-72
2021/09/21 11:08:31;;;;;;;5.13;2.30;;;;;;;;;;5062108;28;20087;-73
2021/09/21 11:11:01;;;;;;;5.22;2.60;;;;;;;;;;5058008;28;20116;-73
2021/09/21 11:13:31;;;;;;;3.73;2.40;;;;;;;;;;5066449;28;20104;-72
2021/09/21 11:15:57;;;;;;;5.60;2.85;;;;;;;;;;5065497;28;20546;-73
2021/09/21 11:18:23;;;;;;;2.63;1.90;;;;;;;;;;5069613;28;20036;-72
2021/09/21 11:20:49;;;;;;;4.20;2.03;;;;;;;;;;5071877;28;20024;-73
2021/09/21 11:23:16;;;;;;;3.95;2.53;;;;;;;;;;5070509;28;20081;-72
2021/09/21 11:25:43;;;;;;;3.67;2.22;;;;;;;;;;5066717;28;20041;-73
2021/09/21 11:28:09;;;;;;;4.55;2.05;;;;;;;;;;5071210;28;20035;-72
2021/09/21 11:30:35;;;;;;;6.00;2.13;;;;;;;;;;5071302;28;20478;-73
2021/09/21 11:33:14;;;;;;;6.05;2.50;;;;;;;;;;5069202;28;20166;-73
2021/09/21 11:35:45;;;;;;;3.92;2.35;;;;;;;;;;5070916;28;20372;-73
2021/09/21 11:38:11;;;;;;;7.82;2.35;;;;;;;;;;5070902;28;20107;-73
2021/09/21 11:40:37;;;;;;;4.07;2.28;;;;;;;;;;5071338;28;20432;-73
2021/09/21 11:43:03;;;;;;;3.95;2.55;;;;;;;;;;5063072;28;20025;-73
2021/09/21 11:45:30;;;;;;;3.28;2.05;;;;;;;;;;5070246;28;20166;-73
2021/09/21 11:47:55;;;;;;;3.25;2.22;;;;;;;;;;5070715;28;20035;-73
2021/09/21 11:50:27;;;;;;;3.90;2.45;;;;;;;;;;5062869;28;20028;-73
2021/09/21 11:52:54;;;;;;;5.28;2.50;;;;;;;;;;5070679;28;20032;-73
2021/09/21 11:55:22;;;;;;;3.67;2.20;;;;;;;;;;5062390;28;20032;-73
2021/09/21 11:57:49;;;;;;;3.35;2.42;;;;;;;;;;5070733;28;20048;-72
2021/09/21 12:00:25;;;;;;;5.28;3.00;;;;;;;;;;5065840;28;20383;-73
2021/09/21 12:02:55;;;;;;;4.00;2.78;;;;;;;;;;5065753;28;20399;-73
2021/09/21 12:05:21;;;;;;;4.32;2.45;;;;;;;;;;5068717;28;20139;-72
2021/09/21 12:07:48;;;;;;;3.67;2.28;;;;;;;;;;5070356;28;20139;-73
2021/09/21 12:10:14;;;;;;;3.28;2.10;;;;;;;;;;5066090;28;20039;-73
2021/09/21 12:12:41;;;;;;;5.53;2.03;;;;;;;;;;5071662;28;20102;-70
2021/09/21 12:15:07;;;;;;;4.22;2.30;;;;;;;;;;5066032;28;20052;-70
2021/09/21 12:17:39;;;;;;;4.93;2.20;;;;;;;;;;5060573;28;20039;-71
2021/09/21 12:20:06;;;;;;;3.97;2.20;;;;;;;;;;5062195;28;20498;-73
2021/09/21 12:22:32;;;;;;;5.13;2.60;;;;;;;;;;5069166;28;20047;-73
2021/09/21 12:25:08;;;;;;;3.85;2.17;;;;;;;;;;5065973;28;20133;-72
2021/09/21 12:27:35;;;;;;;4.65;2.22;;;;;;;;;;5069501;28;20085;-72
2021/09/21 12:30:01;;;;;;;5.45;2.35;;;;;;;;;;5061100;28;20435;-73
2021/09/21 12:32:27;;;;;;;6.95;2.65;;;;;;;;;;5068621;28;20143;-73
2021/09/21 12:35:00;;;;;;;3.00;2.17;;;;;;;;;;5062863;28;20471;-73
2021/09/21 12:37:26;;;;;;;3.50;2.20;;;;;;;;;;5070661;28;20238;-73
2021/09/21 12:39:59;;;;;;;7.97;2.20;;;;;;;;;;5060932;28;20020;-72
2021/09/21 12:42:24;;;;;;;3.00;2.13;;;;;;;;;;5067541;28;20086;-73
2021/09/21 12:44:50;;;;;;;6.22;2.40;;;;;;;;;;5066891;28;20116;-74
2021/09/21 12:47:17;;;;;;;5.18;2.70;;;;;;;;;;5066438;28;20141;-74
2021/09/21 12:49:43;;;;;;;9.77;2.67;;;;;;;;;;5066839;28;20036;-72
2021/09/21 12:52:09;;;;;;;5.18;2.08;;;;;;;;;;5066014;28;20498;-76
2021/09/21 12:54:35;;;;;;;3.92;2.30;;;;;;;;;;5064946;28;20029;-72
2021/09/21 12:57:02;;;;;;;4.82;2.20;;;;;;;;;;5061243;28;20036;-73
2021/09/21 12:59:30;;;;;;;6.28;2.05;;;;;;;;;;5043222;28;20048;-74
2021/09/21 13:01:56;;;;;;;2.83;2.00;;;;;;;;;;5068542;28;20559;-73
2021/09/21 13:04:24;;;;;;;6.18;2.40;;;;;;;;;;5069893;28;20503;-73
2021/09/21 13:06:51;;;;;;;9.52;2.40;;;;;;;;;;5065036;28;21673;-73
2021/09/21 13:09:17;;;;;;;3.58;2.28;;;;;;;;;;5064848;28;20032;-73
2021/09/21 13:11:43;;;;;;;3.08;2.20;;;;;;;;;;5064939;28;20039;-72
2021/09/21 13:14:09;;;;;;;2.53;1.75;;;;;;;;;;5067567;28;20024;-73
2021/09/21 13:16:38;;;;;;;2.75;1.98;;;;;;;;;;5074370;28;20024;-74
2021/09/21 13:19:04;;;;;;;2.70;2.22;;;;;;;;;;5070396;28;20090;-73
2021/09/21 13:21:30;;;;;;;2.83;1.92;;;;;;;;;;5058792;28;20480;-71
2021/09/21 13:23:55;;;;;;;3.67;1.98;;;;;;;;;;5057259;28;20048;-71
2021/09/21 13:26:22;;;;;;;2.95;2.05;;;;;;;;;;5069453;28;20513;-70
2021/09/21 13:28:48;;;;;;;4.18;2.20;;;;;;;;;;5073497;28;20024;-74
2021/09/21 13:31:14;;;;;;;3.55;2.30;;;;;;;;;;5060418;28;20023;-75
2021/09/21 13:33:40;;;;;;;3.47;2.03;;;;;;;;;;5059598;28;20413;-74
2021/09/21 13:36:06;;;;;;;3.08;1.98;;;;;;;;;;5069100;28;20027;-74
2021/09/21 13:38:32;;;;;;;2.10;1.73;;;;;;;;;;5064122;28;20055;-75
2021/09/21 13:40:58;;;;;;;6.45;2.55;;;;;;;;;;5059415;28;20113;-72
2021/09/21 13:43:24;;;;;;;4.78;2.03;;;;;;;;;;5066387;28;20475;-73
2021/09/21 13:45:50;;;;;;;5.28;2.30;;;;;;;;;;5064431;28;20376;-73
2021/09/21 13:48:16;;;;;;;3.78;2.65;;;;;;;;;;5067347;28;20048;-74
2021/09/21 13:50:42;;;;;;;4.50;2.60;;;;;;;;;;5066666;28;20589;-72
2021/09/21 13:53:08;;;;;;;5.95;2.70;;;;;;;;;;5066857;28;20051;-72
2021/09/21 13:55:34;;;;;;;3.28;2.42;;;;;;;;;;5067975;28;20032;-72
2021/09/21 13:58:00;;;;;;;4.72;2.80;;;;;;;;;;5061057;28;20074;-73
2021/09/21 14:00:26;;;;;;;6.68;2.45;;;;;;;;;;5065784;28;20024;-72
2021/09/21 14:02:53;;;;;;;6.00;2.08;;;;;;;;;;5066264;28;20475;-72
2021/09/21 14:05:19;;;;;;;3.10;2.38;;;;;;;;;;5057524;28;20028;-72
2021/09/21 14:07:46;;;;;;;5.28;2.80;;;;;;;;;;5064235;28;20033;-72
2021/09/21 14:10:12;;;;;;;3.35;2.42;;;;;;;;;;5065506;28;20647;-72
2021/09/21 14:12:38;;;;;;;2.97;1.90;;;;;;;;;;5063393;28;20024;-72
2021/09/21 14:15:06;;;;;;;3.72;2.50;;;;;;;;;;5063845;28;20483;-71
2021/09/21 14:17:32;;;;;;;2.75;2.10;;;;;;;;;;5066230;28;20032;-72
2021/09/21 14:19:58;;;;;;;4.03;2.33;;;;;;;;;;5066127;28;20098;-71
2021/09/21 14:22:24;;;;;;;3.83;2.20;;;;;;;;;;5067640;28;20056;-72
2021/09/21 14:24:52;;;;;;;3.65;2.47;;;;;;;;;;5064026;28;20089;-72
2021/09/21 14:27:19;;;;;;;4.70;2.22;;;;;;;;;;5063912;28;20028;-71
2021/09/21 14:29:44;;;;;;;4.40;2.63;;;;;;;;;;5064332;28;20043;-72
2021/09/21 14:32:10;;;;;;;3.78;2.28;;;;;;;;;;5061844;28;20024;-72
2021/09/21 14:34:36;;;;;;;3.67;2.65;;;;;;;;;;5062667;28;20028;-72
2021/09/21 14:37:02;;;;;;;5.20;2.78;;;;;;;;;;5063405;28;20117;-72
2021/09/21 14:39:28;;;;;;;3.45;2.35;;;;;;;;;;5054660;28;20074;-73
2021/09/21 14:41:55;;;;;;;7.60;2.47;;;;;;;;;;5064974;28;20054;-72
2021/09/21 14:44:21;;;;;;;3.25;2.20;;;;;;;;;;5049551;28;20130;-72
2021/09/21 14:46:47;;;;;;;2.67;1.98;;;;;;;;;;5069252;28;20732;-73
2021/09/21 14:49:14;;;;;;;5.93;2.20;;;;;;;;;;5065224;28;20123;-72